createdAt,value
2018-12-15T00:00:44.924Z,101467.64
2018-12-15T00:01:50.677Z,101469.36
2018-12-15T00:02:57.745Z,101471.50
2018-12-15T00:04:03.933Z,101467.66
2018-12-15T00:05:10.371Z,101465.06
2018-12-15T00:06:17.167Z,101470.23
2018-12-15T00:07:23.045Z,101470.23
2018-12-15T00:08:28.814Z,101474.10
2018-12-15T00:09:34.533Z,101472.35
2018-12-15T00:10:40.312Z,101471.48
2018-12-15T00:11:46.444Z,101476.22
2018-12-15T00:12:52.459Z,101471.08
2018-12-15T00:13:58.259Z,101467.63
2018-12-15T00:15:03.642Z,101461.59
2018-12-15T00:16:09.429Z,101466.77
2018-12-15T00:17:15.283Z,101462.09
2018-12-15T00:18:20.949Z,101467.17
2018-12-15T00:19:27.250Z,101466.31
2018-12-15T00:20:32.931Z,101464.16
2018-12-15T00:21:38.874Z,101465.48
2018-12-15T00:22:45.104Z,101466.27
2018-12-15T00:23:51.060Z,101462.38
2018-12-15T00:24:57.066Z,101461.09
2018-12-15T00:26:02.808Z,101465.42
2018-12-15T00:27:08.573Z,101461.53
2018-12-15T00:28:14.226Z,101454.63
2018-12-15T00:29:21.071Z,101455.91
2018-12-15T00:30:26.477Z,101457.22
2018-12-15T00:31:32.161Z,101449.89
2018-12-15T00:32:38.201Z,101455.91
2018-12-15T00:33:44.201Z,101455.86
2018-12-15T00:34:50.604Z,101453.72
2018-12-15T00:35:56.425Z,101455.03
2018-12-15T00:37:02.106Z,101459.34
2018-12-15T00:38:07.829Z,101461.48
2018-12-15T00:39:13.508Z,101453.72
2018-12-15T00:40:19.848Z,101456.73
2018-12-15T00:41:25.540Z,101456.76
2018-12-15T00:42:32.855Z,101454.58
2018-12-15T00:43:38.566Z,101450.27
2018-12-15T00:44:44.479Z,101448.16
2018-12-15T00:45:50.553Z,101455.03
2018-12-15T00:46:56.277Z,101453.74
2018-12-15T00:48:02.505Z,101456.78
2018-12-15T00:49:08.233Z,101450.74
2018-12-15T00:50:13.858Z,101451.75
2018-12-15T00:51:19.581Z,101456.43
2018-12-15T00:52:25.611Z,101454.22
2018-12-15T00:53:31.316Z,101458.00
2018-12-15T00:54:37.205Z,101460.58
2018-12-15T00:55:42.600Z,101458.40
2018-12-15T00:56:48.621Z,101457.13
2018-12-15T00:57:54.871Z,101457.15
2018-12-15T00:59:00.697Z,101460.58
2018-12-15T01:00:05.698Z,101457.55
2018-12-15T01:01:11.467Z,101456.26
2018-12-15T01:02:17.447Z,101458.81
2018-12-15T01:03:24.002Z,101460.59
2018-12-15T01:04:29.830Z,101460.19
2018-12-15T01:05:35.557Z,101462.75
2018-12-15T01:06:41.427Z,101466.14
2018-12-15T01:07:47.697Z,101464.86
2018-12-15T01:08:53.535Z,101463.97
2018-12-15T01:09:59.497Z,101466.16
2018-12-15T01:11:05.403Z,101473.00
2018-12-15T01:12:11.974Z,101466.19
2018-12-15T01:13:17.330Z,101470.45
2018-12-15T01:14:23.046Z,101463.98
2018-12-15T01:15:34.021Z,101470.38
2018-12-15T01:16:39.727Z,101463.09
2018-12-15T01:17:46.126Z,101478.98
2018-12-15T01:18:51.945Z,101470.87
2018-12-15T01:19:58.257Z,101472.54
2018-12-15T01:21:03.983Z,101473.83
2018-12-15T01:22:09.334Z,101475.56
2018-12-15T01:23:15.009Z,101481.16
2018-12-15T01:24:20.716Z,101476.84
2018-12-15T01:25:26.365Z,101478.09
2018-12-15T01:26:32.053Z,101485.00
2018-12-15T01:27:37.734Z,101485.41
2018-12-15T01:28:44.346Z,101484.14
2018-12-15T01:29:50.275Z,101488.87
2018-12-15T01:30:56.242Z,101486.71
2018-12-15T01:32:01.976Z,101486.30
2018-12-15T01:33:07.956Z,101485.88
2018-12-15T01:34:13.658Z,101486.73
2018-12-15T01:35:19.347Z,101489.33
2018-12-15T01:36:26.108Z,101490.60
2018-12-15T01:37:31.993Z,101485.85
2018-12-15T01:38:38.248Z,101483.70
2018-12-15T01:39:44.099Z,101488.41
2018-12-15T01:40:50.536Z,101489.67
2018-12-15T01:41:56.321Z,101487.99
2018-12-15T01:43:02.319Z,101492.30
2018-12-15T01:44:07.421Z,101489.75
2018-12-15T01:45:13.549Z,101489.30
2018-12-15T01:46:19.293Z,101491.44
2018-12-15T01:47:27.056Z,101495.34
2018-12-15T01:48:31.060Z,101494.02
2018-12-15T01:49:36.888Z,101497.87
2018-12-15T01:50:42.540Z,101498.75
2018-12-15T01:51:48.636Z,101495.74
2018-12-15T01:52:54.311Z,101500.53
2018-12-15T01:54:00.127Z,101497.03
2018-12-15T01:55:05.924Z,101498.27
2018-12-15T01:56:12.226Z,101497.41
2018-12-15T01:57:17.937Z,101500.85
2018-12-15T01:58:23.673Z,101501.28
2018-12-15T01:59:29.421Z,101499.17
2018-12-15T02:00:35.113Z,101497.87
2018-12-15T02:01:39.783Z,101500.84
2018-12-15T02:02:45.499Z,101501.67
2018-12-15T02:03:51.681Z,101501.67
2018-12-15T02:04:58.259Z,101501.70
2018-12-15T02:06:03.898Z,101501.23
2018-12-15T02:07:09.671Z,101504.25
2018-12-15T02:08:15.481Z,101503.38
2018-12-15T02:09:21.370Z,101500.84
2018-12-15T02:10:27.304Z,101500.78
2018-12-15T02:11:33.061Z,101502.11
2018-12-15T02:12:38.966Z,101499.48
2018-12-15T02:13:44.964Z,101503.38
2018-12-15T02:14:50.688Z,101506.40
2018-12-15T02:15:56.369Z,101508.08
2018-12-15T02:17:02.833Z,101505.50
2018-12-15T02:18:08.560Z,101509.02
2018-12-15T02:19:14.354Z,101516.72
2018-12-15T02:20:20.246Z,101513.36
2018-12-15T02:21:26.259Z,101510.27
2018-12-15T02:22:32.900Z,101508.97
2018-12-15T02:23:39.178Z,101509.77
2018-12-15T02:24:45.176Z,101506.75
2018-12-15T02:25:51.342Z,101512.75
2018-12-15T02:26:57.540Z,101511.91
2018-12-15T02:28:03.192Z,101506.31
2018-12-15T02:29:08.979Z,101508.44
2018-12-15T02:30:13.959Z,101508.00
2018-12-15T02:31:20.121Z,101507.15
2018-12-15T02:32:25.825Z,101512.29
2018-12-15T02:33:32.172Z,101505.88
2018-12-15T02:34:37.858Z,101506.74
2018-12-15T02:35:43.723Z,101506.69
2018-12-15T02:36:49.528Z,101503.72
2018-12-15T02:37:55.284Z,101501.55
2018-12-15T02:39:01.020Z,101505.04
2018-12-15T02:40:06.039Z,101505.47
2018-12-15T02:41:13.038Z,101507.56
2018-12-15T02:42:18.809Z,101507.56
2018-12-15T02:43:24.350Z,101510.12
2018-12-15T02:44:30.094Z,101503.73
2018-12-15T02:45:36.172Z,101508.11
2018-12-15T02:46:43.132Z,101514.06
2018-12-15T02:47:48.921Z,101509.00
2018-12-15T02:48:55.402Z,101511.48
2018-12-15T02:50:01.172Z,101503.73
2018-12-15T02:51:06.863Z,101508.46
2018-12-15T02:52:18.083Z,101504.57
2018-12-15T02:53:23.929Z,101503.23
2018-12-15T02:54:29.640Z,101503.45
2018-12-15T02:55:35.677Z,101510.63
2018-12-15T02:56:41.345Z,101508.84
2018-12-15T02:57:47.899Z,101508.05
2018-12-15T02:58:53.620Z,101507.13
2018-12-15T03:00:00.006Z,101510.52
2018-12-15T03:01:06.568Z,101510.92
2018-12-15T03:02:12.364Z,101507.08
2018-12-15T03:03:17.720Z,101501.61
2018-12-15T03:04:23.841Z,101505.04
2018-12-15T03:05:29.187Z,101505.41
2018-12-15T03:06:34.994Z,101504.98
2018-12-15T03:07:40.793Z,101503.63
2018-12-15T03:08:46.483Z,101511.79
2018-12-15T03:09:52.262Z,101510.46
2018-12-15T03:10:58.031Z,101507.47
2018-12-15T03:12:03.820Z,101512.23
2018-12-15T03:13:09.581Z,101508.34
2018-12-15T03:14:15.349Z,101509.22
2018-12-15T03:15:21.078Z,101508.34
2018-12-15T03:16:26.782Z,101504.86
2018-12-15T03:17:32.488Z,101500.56
2018-12-15T03:18:38.239Z,101505.35
2018-12-15T03:19:43.993Z,101501.89
2018-12-15T03:21:01.651Z,101501.87
2018-12-15T03:22:07.554Z,101495.88
2018-12-15T03:23:13.246Z,101497.13
2018-12-15T03:24:19.349Z,101504.83
2018-12-15T03:25:25.157Z,101498.41
2018-12-15T03:26:30.891Z,101500.58
2018-12-15T03:27:36.587Z,101499.23
2018-12-15T03:28:42.434Z,101499.62
2018-12-15T03:29:48.113Z,101504.33
2018-12-15T03:30:53.941Z,101504.35
2018-12-15T03:31:59.657Z,101499.23
2018-12-15T03:33:05.340Z,101505.20
2018-12-15T03:34:10.987Z,101501.72
2018-12-15T03:35:16.665Z,101502.59
2018-12-15T03:36:22.637Z,101503.02
2018-12-15T03:37:28.309Z,101501.70
2018-12-15T03:38:34.029Z,101507.77
2018-12-15T03:39:39.716Z,101505.61
2018-12-15T03:40:45.432Z,101510.77
2018-12-15T03:41:51.462Z,101500.41
2018-12-15T03:42:57.876Z,101500.45
2018-12-15T03:44:03.777Z,101503.45
2018-12-15T03:45:09.547Z,101504.30
2018-12-15T03:46:15.301Z,101509.48
2018-12-15T03:47:21.104Z,101508.59
2018-12-15T03:48:26.841Z,101509.52
2018-12-15T03:49:33.027Z,101504.72
2018-12-15T03:50:38.779Z,101509.02
2018-12-15T03:51:44.480Z,101512.47
2018-12-15T03:52:50.160Z,101509.86
2018-12-15T03:53:55.809Z,101510.77
2018-12-15T03:55:01.548Z,101516.78
2018-12-15T03:56:07.567Z,101521.48
2018-12-15T03:57:13.383Z,101519.77
2018-12-15T03:58:19.537Z,101515.44
2018-12-15T03:59:26.750Z,101518.51
2018-12-15T04:00:32.740Z,101522.34
2018-12-15T04:01:38.400Z,101521.94
2018-12-15T04:02:44.834Z,101522.77
2018-12-15T04:03:50.538Z,101518.07
2018-12-15T04:04:57.229Z,101519.33
2018-12-15T04:06:04.836Z,101515.03
2018-12-15T04:07:11.324Z,101514.66
2018-12-15T04:08:16.925Z,101520.65
2018-12-15T04:09:23.067Z,101517.27
2018-12-15T04:10:30.717Z,101523.16
2018-12-15T04:11:37.177Z,101520.16
2018-12-15T04:12:42.908Z,101514.98
2018-12-15T04:13:48.680Z,101517.56
2018-12-15T04:14:54.258Z,101520.98
2018-12-15T04:16:00.473Z,101516.26
2018-12-15T04:17:06.141Z,101519.25
2018-12-15T04:18:11.812Z,101520.95
2018-12-15T04:19:17.584Z,101525.23
2018-12-15T04:20:23.311Z,101519.22
2018-12-15T04:21:29.049Z,101526.58
2018-12-15T04:22:34.838Z,101527.48
2018-12-15T04:23:40.523Z,101525.30
2018-12-15T04:24:45.632Z,101520.56
2018-12-15T04:25:51.321Z,101530.91
2018-12-15T04:26:57.878Z,101527.56
2018-12-15T04:28:03.558Z,101535.69
2018-12-15T04:29:09.059Z,101538.20
2018-12-15T04:30:15.467Z,101533.05
2018-12-15T04:31:21.213Z,101536.03
2018-12-15T04:32:28.958Z,101539.84
2018-12-15T04:33:34.980Z,101536.34
2018-12-15T04:34:40.858Z,101538.13
2018-12-15T04:35:46.595Z,101539.42
2018-12-15T04:36:52.452Z,101536.83
2018-12-15T04:37:58.593Z,101534.24
2018-12-15T04:39:03.495Z,101529.94
2018-12-15T04:40:08.688Z,101529.96
2018-12-15T04:41:14.581Z,101538.55
2018-12-15T04:42:21.424Z,101531.75
2018-12-15T04:43:27.844Z,101539.40
2018-12-15T04:44:33.512Z,101539.83
2018-12-15T04:45:39.396Z,101526.50
2018-12-15T04:46:44.972Z,101539.05
2018-12-15T04:47:50.700Z,101537.70
2018-12-15T04:48:56.430Z,101540.68
2018-12-15T04:50:02.234Z,101542.82
2018-12-15T04:51:07.693Z,101545.35
2018-12-15T04:52:13.427Z,101542.34
2018-12-15T04:53:19.397Z,101545.80
2018-12-15T04:54:25.133Z,101540.63
2018-12-15T04:55:30.907Z,101538.92
2018-12-15T04:56:37.040Z,101545.34
2018-12-15T04:57:42.807Z,101540.69
2018-12-15T04:58:48.679Z,101541.97
2018-12-15T04:59:54.390Z,101543.67
2018-12-15T05:01:00.058Z,101544.08
2018-12-15T05:02:05.778Z,101538.87
2018-12-15T05:03:11.444Z,101537.62
2018-12-15T05:04:17.248Z,101537.54
2018-12-15T05:05:22.941Z,101544.44
2018-12-15T05:06:29.145Z,101540.11
2018-12-15T05:07:34.909Z,101539.26
2018-12-15T05:08:41.173Z,101542.70
2018-12-15T05:09:46.856Z,101542.69
2018-12-15T05:10:52.705Z,101543.56
2018-12-15T05:11:58.687Z,101541.83
2018-12-15T05:13:04.401Z,101543.56
2018-12-15T05:14:10.111Z,101541.79
2018-12-15T05:15:15.967Z,101539.69
2018-12-15T05:16:21.731Z,101543.18
2018-12-15T05:17:27.457Z,101542.72
2018-12-15T05:18:32.662Z,101545.27
2018-12-15T05:19:38.771Z,101547.02
2018-12-15T05:20:45.414Z,101546.98
2018-12-15T05:21:51.198Z,101549.64
2018-12-15T05:22:57.051Z,101548.30
2018-12-15T05:24:02.860Z,101545.70
2018-12-15T05:25:09.577Z,101551.25
2018-12-15T05:26:15.282Z,101549.52
2018-12-15T05:27:21.685Z,101551.25
2018-12-15T05:28:27.487Z,101554.78
2018-12-15T05:29:33.617Z,101553.88
2018-12-15T05:30:39.916Z,101552.17
2018-12-15T05:31:46.265Z,101553.83
2018-12-15T05:32:52.751Z,101551.25
2018-12-15T05:33:58.577Z,101549.11
2018-12-15T05:35:03.754Z,101556.38
2018-12-15T05:36:09.938Z,101556.42
2018-12-15T05:37:16.532Z,101558.56
2018-12-15T05:38:23.169Z,101558.59
2018-12-15T05:39:29.058Z,101558.55
2018-12-15T05:40:35.546Z,101559.44
2018-12-15T05:41:41.657Z,101560.25
2018-12-15T05:42:47.476Z,101568.87
2018-12-15T05:43:53.412Z,101559.40
2018-12-15T05:44:59.376Z,101567.12
2018-12-15T05:46:05.444Z,101561.09
2018-12-15T05:47:11.252Z,101563.23
2018-12-15T05:48:17.089Z,101561.93
2018-12-15T05:49:23.675Z,101560.19
2018-12-15T05:50:29.317Z,101564.11
2018-12-15T05:51:34.864Z,101564.08
2018-12-15T05:52:40.548Z,101571.44
2018-12-15T05:53:46.168Z,101572.72
2018-12-15T05:54:51.854Z,101567.95
2018-12-15T05:55:57.509Z,101575.69
2018-12-15T05:57:03.282Z,101572.73
2018-12-15T05:58:09.131Z,101574.52
2018-12-15T05:59:14.883Z,101577.10
2018-12-15T06:00:20.629Z,101578.73
2018-12-15T06:01:26.523Z,101574.87
2018-12-15T06:02:32.035Z,101582.23
2018-12-15T06:03:38.889Z,101577.41
2018-12-15T06:04:44.571Z,101583.05
2018-12-15T06:05:50.069Z,101583.44
2018-12-15T06:06:55.913Z,101586.05
2018-12-15T06:08:01.881Z,101591.19
2018-12-15T06:09:06.963Z,101584.40
2018-12-15T06:10:13.155Z,101586.93
2018-12-15T06:11:20.138Z,101587.34
2018-12-15T06:12:27.807Z,101587.34
2018-12-15T06:13:34.997Z,101585.31
2018-12-15T06:14:42.587Z,101586.45
2018-12-15T06:15:49.196Z,101587.62
2018-12-15T06:16:56.213Z,101586.78
2018-12-15T06:18:02.704Z,101586.77
2018-12-15T06:19:09.233Z,101586.78
2018-12-15T06:20:15.375Z,101585.87
2018-12-15T06:21:21.064Z,101582.84
2018-12-15T06:22:27.081Z,101587.14
2018-12-15T06:23:33.637Z,101587.58
2018-12-15T06:24:41.106Z,101591.03
2018-12-15T06:25:47.140Z,101586.70
2018-12-15T06:26:55.124Z,101589.69
2018-12-15T06:28:01.893Z,101586.83
2018-12-15T06:29:07.942Z,101583.77
2018-12-15T06:30:15.150Z,101582.48
2018-12-15T06:31:21.111Z,101579.45
2018-12-15T06:32:29.456Z,101585.00
2018-12-15T06:33:36.218Z,101588.06
2018-12-15T06:34:42.049Z,101584.11
2018-12-15T06:35:48.174Z,101587.56
2018-12-15T06:36:53.929Z,101586.69
2018-12-15T06:38:00.582Z,101595.36
2018-12-15T06:39:06.683Z,101590.66
2018-12-15T06:40:13.095Z,101596.63
2018-12-15T06:41:18.870Z,101593.20
2018-12-15T06:42:24.719Z,101596.14
2018-12-15T06:43:31.308Z,101596.14
2018-12-15T06:44:38.741Z,101598.28
2018-12-15T06:45:44.744Z,101594.44
2018-12-15T06:46:50.830Z,101599.09
2018-12-15T06:47:56.575Z,101597.00
2018-12-15T06:49:03.293Z,101599.53
2018-12-15T06:50:08.712Z,101596.52
2018-12-15T06:51:14.408Z,101600.88
2018-12-15T06:52:20.131Z,101594.08
2018-12-15T06:53:26.327Z,101601.80
2018-12-15T06:54:32.110Z,101599.20
2018-12-15T06:55:38.788Z,101596.22
2018-12-15T06:56:44.857Z,101593.22
2018-12-15T06:57:50.908Z,101593.58
2018-12-15T06:58:56.606Z,101594.84
2018-12-15T07:00:02.113Z,101601.27
2018-12-15T07:01:07.925Z,101597.80
2018-12-15T07:02:13.685Z,101597.78
2018-12-15T07:03:19.475Z,101599.95
2018-12-15T07:04:25.282Z,101596.05
2018-12-15T07:05:31.005Z,101590.91
2018-12-15T07:06:36.664Z,101594.30
2018-12-15T07:07:42.842Z,101600.30
2018-12-15T07:08:48.522Z,101595.22
2018-12-15T07:09:55.857Z,101596.89
2018-12-15T07:11:02.568Z,101592.22
2018-12-15T07:12:08.948Z,101602.48
2018-12-15T07:13:14.916Z,101611.03
2018-12-15T07:14:20.704Z,101601.17
2018-12-15T07:15:26.982Z,101605.92
2018-12-15T07:16:33.736Z,101606.77
2018-12-15T07:17:39.478Z,101605.50
2018-12-15T07:18:45.885Z,101609.73
2018-12-15T07:19:51.766Z,101609.33
2018-12-15T07:20:58.125Z,101614.11
2018-12-15T07:22:04.193Z,101614.11
2018-12-15T07:23:09.913Z,101614.92
2018-12-15T07:24:17.477Z,101611.45
2018-12-15T07:25:23.251Z,101612.36
2018-12-15T07:26:28.965Z,101611.91
2018-12-15T07:27:34.372Z,101611.47
2018-12-15T07:28:40.570Z,101609.77
2018-12-15T07:29:47.748Z,101604.94
2018-12-15T07:30:54.109Z,101605.81
2018-12-15T07:32:00.287Z,101603.22
2018-12-15T07:33:06.592Z,101605.75
2018-12-15T07:34:14.534Z,101602.39
2018-12-15T07:35:20.839Z,101607.13
2018-12-15T07:36:27.322Z,101602.41
2018-12-15T07:37:34.004Z,101606.31
2018-12-15T07:38:40.175Z,101597.69
2018-12-15T07:39:46.905Z,101600.62
2018-12-15T07:40:53.496Z,101601.92
2018-12-15T07:41:59.410Z,101595.48
2018-12-15T07:43:05.664Z,101601.08
2018-12-15T07:44:13.813Z,101598.06
2018-12-15T07:45:20.436Z,101597.23
2018-12-15T07:46:28.386Z,101599.83
2018-12-15T07:47:36.565Z,101596.80
2018-12-15T07:48:43.220Z,101596.77
2018-12-15T07:49:50.805Z,101598.94
2018-12-15T07:50:57.260Z,101600.99
2018-12-15T07:52:05.342Z,101602.30
2018-12-15T07:53:12.167Z,101598.41
2018-12-15T07:54:18.108Z,101599.95
2018-12-15T07:55:24.831Z,101599.89
2018-12-15T07:56:33.194Z,101601.55
2018-12-15T07:57:39.302Z,101598.50
2018-12-15T07:58:46.546Z,101599.35
2018-12-15T07:59:52.744Z,101604.55
2018-12-15T08:00:59.140Z,101592.99
2018-12-15T08:02:05.189Z,101597.71
2018-12-15T08:03:11.379Z,101593.77
2018-12-15T08:04:17.512Z,101595.07
2018-12-15T08:05:23.592Z,101601.08
2018-12-15T08:06:29.939Z,101595.95
2018-12-15T08:07:35.773Z,101601.14
2018-12-15T08:08:41.880Z,101601.16
2018-12-15T08:09:48.493Z,101606.33
2018-12-15T08:12:37.677Z,101604.16
2018-12-15T08:13:47.140Z,101604.56
2018-12-15T08:14:55.995Z,101608.89
2018-12-15T08:16:02.469Z,101605.38
2018-12-15T08:17:08.966Z,101605.36
2018-12-15T08:18:14.958Z,101601.05
2018-12-15T08:19:21.251Z,101611.81
2018-12-15T08:20:27.579Z,101612.70
2018-12-15T08:21:34.416Z,101609.67
2018-12-15T08:22:41.700Z,101615.33
2018-12-15T08:23:47.974Z,101612.34
2018-12-15T08:24:54.466Z,101614.92
2018-12-15T08:26:01.098Z,101617.91
2018-12-15T08:27:07.206Z,101623.06
2018-12-15T08:28:14.156Z,101620.09
2018-12-15T08:29:21.924Z,101626.54
2018-12-15T08:30:28.907Z,101622.63
2018-12-15T08:31:36.112Z,101623.06
2018-12-15T08:32:43.902Z,101617.05
2018-12-15T08:33:50.479Z,101626.09
2018-12-15T08:34:56.735Z,101622.63
2018-12-15T08:36:03.341Z,101620.93
2018-12-15T08:37:09.376Z,101620.95
2018-12-15T08:38:15.284Z,101615.83
2018-12-15T08:39:21.023Z,101623.98
2018-12-15T08:40:27.137Z,101619.70
2018-12-15T08:41:33.222Z,101623.13
2018-12-15T08:42:39.255Z,101622.27
2018-12-15T08:43:45.528Z,101620.97
2018-12-15T08:44:51.054Z,101623.92
2018-12-15T08:45:57.353Z,101622.15
2018-12-15T08:47:03.817Z,101620.05
2018-12-15T08:48:11.148Z,101617.34
2018-12-15T08:49:17.016Z,101617.77
2018-12-15T08:50:23.038Z,101618.57
2018-12-15T08:51:28.567Z,101617.74
2018-12-15T08:52:34.768Z,101624.20
2018-12-15T08:53:41.300Z,101626.80
2018-12-15T08:54:50.395Z,101623.81
2018-12-15T08:55:57.666Z,101621.78
2018-12-15T08:57:03.625Z,101627.04
2018-12-15T08:58:10.173Z,101626.37
2018-12-15T08:59:17.028Z,101623.42
2018-12-15T09:00:24.948Z,101624.19
2018-12-15T09:01:31.473Z,101629.72
2018-12-15T09:02:37.921Z,101623.91
2018-12-15T09:03:46.077Z,101617.86
2018-12-15T09:04:52.449Z,101621.01
2018-12-15T09:05:58.781Z,101625.38
2018-12-15T09:07:04.574Z,101622.87
2018-12-15T09:08:11.611Z,101620.06
2018-12-15T09:09:17.297Z,101618.80
2018-12-15T09:10:24.837Z,101617.75
2018-12-15T09:11:31.301Z,101619.35
2018-12-15T09:12:37.044Z,101621.91
2018-12-15T09:13:42.756Z,101623.63
2018-12-15T09:14:48.523Z,101627.06
2018-12-15T09:15:54.468Z,101626.63
2018-12-15T09:17:02.966Z,101628.36
2018-12-15T09:18:09.853Z,101623.23
2018-12-15T09:19:15.473Z,101628.47
2018-12-15T09:20:21.302Z,101628.14
2018-12-15T09:21:27.294Z,101628.16
2018-12-15T09:22:33.510Z,101625.63
2018-12-15T09:23:39.379Z,101621.25
2018-12-15T09:24:46.244Z,101626.29
2018-12-15T09:25:53.452Z,101629.67
2018-12-15T09:26:59.407Z,101624.44
2018-12-15T09:28:05.381Z,101625.61
2018-12-15T09:29:11.238Z,101632.84
2018-12-15T09:30:17.779Z,101628.12
2018-12-15T09:31:24.039Z,101618.72
2018-12-15T09:32:30.154Z,101626.06
2018-12-15T09:33:36.404Z,101621.41
2018-12-15T09:34:42.952Z,101622.70
2018-12-15T09:35:49.164Z,101624.92
2018-12-15T09:36:54.847Z,101622.75
2018-12-15T09:38:01.363Z,101622.64
2018-12-15T09:39:06.534Z,101621.34
2018-12-15T09:40:12.458Z,101612.00
2018-12-15T09:41:18.336Z,101613.87
2018-12-15T09:42:24.358Z,101615.16
2018-12-15T09:43:30.665Z,101620.70
2018-12-15T09:44:36.764Z,101617.83
2018-12-15T09:45:42.481Z,101612.59
2018-12-15T09:46:48.823Z,101615.10
2018-12-15T09:47:54.944Z,101616.37
2018-12-15T09:49:01.000Z,101614.23
2018-12-15T09:50:07.644Z,101610.90
2018-12-15T09:51:14.410Z,101610.77
2018-12-15T09:52:21.022Z,101618.42
2018-12-15T09:53:26.552Z,101613.30
2018-12-15T09:54:32.584Z,101609.02
2018-12-15T09:55:38.765Z,101608.05
2018-12-15T09:56:44.886Z,101614.48
2018-12-15T09:57:51.305Z,101613.61
2018-12-15T09:58:57.757Z,101611.95
2018-12-15T10:00:03.049Z,101605.95
2018-12-15T10:01:09.184Z,101608.09
2018-12-15T10:02:14.974Z,101611.11
2018-12-15T10:03:21.058Z,101606.37
2018-12-15T10:04:26.869Z,101606.00
2018-12-15T10:05:32.959Z,101602.93
2018-12-15T10:06:39.452Z,101600.36
2018-12-15T10:07:45.409Z,101599.55
2018-12-15T10:08:52.172Z,101599.50
2018-12-15T10:09:59.329Z,101599.57
2018-12-15T10:11:05.786Z,101592.66
2018-12-15T10:12:12.067Z,101596.12
2018-12-15T10:13:18.155Z,101593.13
2018-12-15T10:14:24.518Z,101597.48
2018-12-15T10:15:30.863Z,101599.63
2018-12-15T10:16:37.263Z,101594.83
2018-12-15T10:17:43.272Z,101598.26
2018-12-15T10:18:49.265Z,101590.96
2018-12-15T10:19:54.964Z,101586.23
2018-12-15T10:21:00.648Z,101588.85
2018-12-15T10:22:06.321Z,101588.91
2018-12-15T10:23:11.988Z,101588.55
2018-12-15T10:24:17.684Z,101585.45
2018-12-15T10:25:23.325Z,101584.13
2018-12-15T10:26:29.004Z,101584.09
2018-12-15T10:27:34.653Z,101581.91
2018-12-15T10:28:40.348Z,101579.81
2018-12-15T10:29:51.122Z,101578.46
2018-12-15T10:31:02.225Z,101575.87
2018-12-15T10:32:13.398Z,101579.75
2018-12-15T10:33:19.122Z,101576.73
2018-12-15T10:34:24.560Z,101578.59
2018-12-15T10:35:30.305Z,101582.91
2018-12-15T10:36:36.017Z,101582.87
2018-12-15T10:37:41.659Z,101581.61
2018-12-15T10:38:47.377Z,101581.63
2018-12-15T10:39:53.111Z,101576.97
2018-12-15T10:40:58.749Z,101578.73
2018-12-15T10:42:04.070Z,101575.33
2018-12-15T10:43:09.786Z,101570.97
2018-12-15T10:44:15.513Z,101573.59
2018-12-15T10:45:22.244Z,101572.72
2018-12-15T10:46:29.113Z,101570.97
2018-12-15T10:47:34.778Z,101567.09
2018-12-15T10:48:40.508Z,101572.72
2018-12-15T10:49:46.280Z,101562.33
2018-12-15T10:50:52.357Z,101562.31
2018-12-15T10:51:59.181Z,101564.84
2018-12-15T10:53:05.823Z,101564.41
2018-12-15T10:54:12.436Z,101563.54
2018-12-15T10:55:19.405Z,101563.13
2018-12-15T10:56:25.114Z,101561.31
2018-12-15T10:57:30.757Z,101561.81
2018-12-15T10:58:36.397Z,101564.52
2018-12-15T10:59:42.139Z,101562.39
2018-12-15T11:00:53.112Z,101563.32
2018-12-15T11:01:58.728Z,101562.86
2018-12-15T11:03:03.973Z,101559.02
2018-12-15T11:04:09.655Z,101555.58
2018-12-15T11:05:15.386Z,101553.00
2018-12-15T11:06:21.076Z,101549.56
2018-12-15T11:07:26.754Z,101550.78
2018-12-15T11:08:32.377Z,101548.68
2018-12-15T11:09:37.681Z,101552.96
2018-12-15T11:10:43.024Z,101546.55
2018-12-15T11:11:48.825Z,101553.13
2018-12-15T11:12:54.474Z,101546.59
2018-12-15T11:14:00.194Z,101554.36
2018-12-15T11:15:05.164Z,101553.02
2018-12-15T11:16:10.845Z,101552.61
2018-12-15T11:17:16.504Z,101555.63
2018-12-15T11:18:22.149Z,101550.24
2018-12-15T11:19:28.507Z,101553.31
2018-12-15T11:20:35.737Z,101543.73
2018-12-15T11:21:41.432Z,101549.09
2018-12-15T11:22:47.053Z,101549.44
2018-12-15T11:23:52.756Z,101548.63
2018-12-15T11:24:58.431Z,101541.50
2018-12-15T11:26:03.753Z,101541.26
2018-12-15T11:27:09.444Z,101541.13
2018-12-15T11:28:15.088Z,101539.39
2018-12-15T11:29:20.740Z,101536.81
2018-12-15T11:30:26.385Z,101534.68
2018-12-15T11:31:32.056Z,101529.97
2018-12-15T11:32:37.712Z,101538.08
2018-12-15T11:33:43.423Z,101538.54
2018-12-15T11:34:49.143Z,101532.98
2018-12-15T11:35:54.844Z,101527.79
2018-12-15T11:37:00.544Z,101531.66
2018-12-15T11:38:06.176Z,101530.02
2018-12-15T11:39:11.875Z,101529.00
2018-12-15T11:40:18.219Z,101530.34
2018-12-15T11:41:24.425Z,101530.73
2018-12-15T11:42:30.076Z,101529.42
2018-12-15T11:43:35.749Z,101528.24
2018-12-15T11:44:41.448Z,101529.17
2018-12-15T11:45:47.120Z,101534.75
2018-12-15T11:46:52.812Z,101525.73
2018-12-15T11:47:58.440Z,101526.16
2018-12-15T11:49:03.840Z,101523.02
2018-12-15T11:50:09.503Z,101523.83
2018-12-15T11:51:15.295Z,101523.08
2018-12-15T11:52:21.032Z,101525.28
2018-12-15T11:53:26.691Z,101526.09
2018-12-15T11:54:32.419Z,101525.78
2018-12-15T11:55:38.146Z,101526.65
2018-12-15T11:56:43.793Z,101524.08
2018-12-15T11:57:49.496Z,101520.59
2018-12-15T11:58:55.125Z,101517.55
2018-12-15T12:00:00.847Z,101525.26
2018-12-15T12:01:06.173Z,101517.98
2018-12-15T12:02:11.571Z,101518.91
2018-12-15T12:03:17.255Z,101518.88
2018-12-15T12:04:23.552Z,101519.70
2018-12-15T12:05:29.215Z,101519.34
2018-12-15T12:06:34.899Z,101514.55
2018-12-15T12:07:40.605Z,101517.12
2018-12-15T12:08:46.322Z,101513.33
2018-12-15T12:09:52.081Z,101510.87
2018-12-15T12:10:57.785Z,101507.83
2018-12-15T12:12:03.476Z,101505.64
2018-12-15T12:13:09.143Z,101508.61
2018-12-15T12:14:14.896Z,101507.69
2018-12-15T12:15:20.652Z,101502.45
2018-12-15T12:16:26.324Z,101502.97
2018-12-15T12:17:32.019Z,101504.69
2018-12-15T12:18:37.739Z,101506.02
2018-12-15T12:19:43.458Z,101506.47
2018-12-15T12:20:49.149Z,101506.98
2018-12-15T12:21:54.812Z,101507.41
2018-12-15T12:23:00.472Z,101512.16
2018-12-15T12:24:06.171Z,101505.75
2018-12-15T12:25:11.914Z,101508.73
2018-12-15T12:26:17.571Z,101504.42
2018-12-15T12:27:23.247Z,101504.39
2018-12-15T12:28:28.863Z,101506.19
2018-12-15T12:29:34.531Z,101502.42
2018-12-15T12:30:40.212Z,101499.38
2018-12-15T12:31:45.917Z,101501.52
2018-12-15T12:32:51.606Z,101499.80
2018-12-15T12:33:57.268Z,101501.43
2018-12-15T12:35:02.905Z,101500.55
2018-12-15T12:36:08.608Z,101500.96